Time;durP1;ratioP1;P1;durP2;ratioP2;P2;SDS_P1;SDS_P2;PMS_P1;PMS_P2;Temp;Humidity;BMP_temperature;BMP_pressure;BME280_temperature;BME280_humidity;BME280_pressure;Samples;Min_cycle;Max_cycle;Signal;HPM_P1;HPM_P2
2022/06/20 04:46:39;;;;;;;23.60;15.43;;;;;;;21.53;76.05;100685.91;5132117;23;20055;-78
2022/06/20 04:49:10;;;;;;;28.92;14.65;;;;;;;21.61;75.82;100689.41;4973026;28;20058;-78
2022/06/20 04:51:44;;;;;;;29.08;14.25;;;;;;;21.66;75.26;100688.78;4972466;28;20019;-80
2022/06/20 04:54:16;;;;;;;28.15;15.57;;;;;;;21.72;75.33;100688.00;4957402;28;20085;-78
2022/06/20 04:56:42;;;;;;;25.52;14.60;;;;;;;21.84;74.79;100691.06;4955541;28;20023;-81
2022/06/20 04:59:16;;;;;;;24.58;15.05;;;;;;;21.89;74.61;100680.44;4957415;28;20133;-78
2022/06/20 05:01:43;;;;;;;31.25;15.98;;;;;;;21.98;74.45;100687.47;4972917;28;20049;-78
2022/06/20 05:04:33;;;;;;;29.00;15.13;;;;;;;22.21;73.52;100682.59;4974218;28;20046;-79
2022/06/20 05:07:03;;;;;;;32.22;16.20;;;;;;;22.29;72.93;100685.19;4974437;28;20023;-81
2022/06/20 05:09:43;;;;;;;21.20;14.48;;;;;;;22.32;72.91;100681.22;4973787;28;20110;-77
2022/06/20 05:12:19;;;;;;;24.70;15.68;;;;;;;22.36;72.70;100680.59;4974095;28;20027;-77
2022/06/20 05:15:01;;;;;;;27.75;14.50;;;;;;;22.37;72.35;100681.44;4956754;28;20045;-78
2022/06/20 05:17:29;;;;;;;;;;;;;;;22.48;72.05;100686.34;4975343;28;20030;-77
2022/06/20 05:20:00;;;;;;;34.03;17.42;;;;;;;22.46;71.82;100680.25;4974707;28;20047;-77
2022/06/20 05:22:35;;;;;;;25.98;15.95;;;;;;;22.61;71.64;100679.09;4975066;28;20027;-78
2022/06/20 05:25:08;;;;;;;30.13;14.45;;;;;;;22.69;70.64;100683.56;4975339;28;20033;-78
2022/06/20 05:27:57;;;;;;;48.90;14.38;;;;;;;22.70;69.68;100677.06;4975150;28;20088;-79
2022/06/20 05:30:52;;;;;;;37.95;14.15;;;;;;;22.70;70.03;100677.91;4974105;28;20038;-82
2022/06/20 05:33:44;;;;;;;22.90;13.95;;;;;;;22.81;70.69;100689.34;4974275;28;20031;-85
2022/06/20 05:36:09;;;;;;;27.88;15.65;;;;;;;22.82;70.73;100683.66;4959324;28;20082;-87
2022/06/20 05:38:49;;;;;;;31.55;13.90;;;;;;;22.71;71.36;100682.34;4966404;28;20035;-84
2022/06/20 05:41:16;;;;;;;28.38;12.75;;;;;;;22.66;71.24;100687.56;4973653;28;20099;-89
2022/06/20 05:43:41;;;;;;;21.25;12.70;;;;;;;22.61;71.76;100697.41;4974866;28;20023;-78
2022/06/20 05:46:19;;;;;;;26.88;12.85;;;;;;;22.62;72.09;100691.75;4953113;28;20051;-78
2022/06/20 05:48:54;;;;;;;23.50;10.50;;;;;;;22.61;72.96;100694.69;4954138;28;20118;-77
2022/06/20 05:51:33;;;;;;;18.25;9.32;;;;;;;22.62;73.52;100686.28;4953668;29;20077;-79
2022/06/20 05:54:05;;;;;;;21.10;9.93;;;;;;;22.80;73.46;100687.66;4952572;28;20489;-79
2022/06/20 05:56:44;;;;;;;11.18;7.18;;;;;;;22.78;72.83;100674.16;4949709;29;20042;-85
2022/06/20 05:59:28;;;;;;;11.30;6.88;;;;;;;23.00;72.72;100683.09;4947663;29;20412;-79
2022/06/20 06:02:00;;;;;;;18.77;7.68;;;;;;;23.13;72.61;100683.16;4950002;29;20051;-83
2022/06/20 06:04:38;;;;;;;15.18;7.85;;;;;;;23.12;72.17;100674.09;4956239;29;20042;-83
2022/06/20 06:07:16;;;;;;;13.25;7.93;;;;;;;23.16;72.47;100680.00;4954225;28;20031;-78
2022/06/20 06:09:45;;;;;;;22.10;7.90;;;;;;;23.12;72.09;100684.22;4956195;28;20023;-81
2022/06/20 06:12:18;;;;;;;10.32;6.28;;;;;;;23.06;71.96;100679.53;4956953;28;20023;-85
2022/06/20 06:14:49;;;;;;;15.00;6.85;;;;;;;23.00;72.74;100683.09;4955593;28;20051;-79
2022/06/20 06:17:37;;;;;;;11.73;6.00;;;;;;;23.01;72.81;100673.84;4955179;28;20471;-79
2022/06/20 06:20:11;;;;;;;11.98;6.00;;;;;;;22.94;73.32;100675.69;4952584;28;20035;-78
2022/06/20 06:22:45;;;;;;;23.52;6.30;;;;;;;22.97;73.34;100669.78;4953228;28;20405;-78
2022/06/20 06:25:33;;;;;;;9.00;4.65;;;;;;;22.92;72.29;100662.19;4953635;28;20030;-79
2022/06/20 06:28:06;;;;;;;13.13;6.53;;;;;;;22.85;72.84;100663.19;4954094;28;20023;-81
2022/06/20 06:30:51;;;;;;;11.40;4.90;;;;;;;22.80;71.96;100660.22;4954044;28;20027;-77
2022/06/20 06:33:32;;;;;;;9.52;4.65;;;;;;;22.78;71.76;100661.28;4953220;28;20416;-77
2022/06/20 06:36:04;;;;;;;19.45;5.32;;;;;;;22.90;71.40;100658.81;4953118;28;20035;-77
2022/06/20 06:38:29;;;;;;;;;;;;;;;22.78;70.64;100658.53;4952927;28;20031;-77
2022/06/20 06:40:56;;;;;;;6.40;4.53;;;;;;;22.83;70.76;100659.81;4952636;29;19922;-77
2022/06/20 06:43:38;;;;;;;10.25;4.95;;;;;;;22.86;71.40;100643.81;4952462;28;20035;-80
2022/06/20 06:46:10;;;;;;;25.08;9.85;;;;;;;22.87;71.64;100647.41;4951814;28;20055;-78
2022/06/20 06:48:45;;;;;;;17.83;6.95;;;;;;;22.99;71.63;100643.03;4967406;28;20030;-77
2022/06/20 06:51:46;;;;;;;8.55;4.97;;;;;;;23.04;70.53;100635.88;4972114;28;20086;-76
2022/06/20 06:54:20;;;;;;;7.75;4.97;;;;;;;23.08;70.13;100625.34;4957841;28;20403;-77
2022/06/20 06:57:08;;;;;;;13.30;6.07;;;;;;;23.16;70.17;100638.84;4971132;28;20411;-77
2022/06/20 06:59:44;;;;;;;7.78;4.78;;;;;;;23.21;70.24;100641.81;4966661;28;20027;-79
2022/06/20 07:02:26;;;;;;;8.15;4.95;;;;;;;23.14;69.78;100635.47;4972427;28;20023;-83
2022/06/20 07:05:04;;;;;;;6.97;4.65;;;;;;;23.21;70.28;100633.59;4972737;28;20026;-79
2022/06/20 07:07:49;;;;;;;8.48;4.13;;;;;;;23.24;69.63;100619.44;4972072;28;20400;-81
2022/06/20 07:10:38;;;;;;;19.50;5.35;;;;;;;23.14;69.46;100616.28;4963363;28;20069;-83
2022/06/20 07:13:35;;;;;;;4.78;3.97;;;;;;;23.16;69.42;100628.72;4971388;28;20523;-78
2022/06/20 07:16:03;;;;;;;9.02;5.63;;;;;;;23.16;69.53;100616.91;4948327;28;20038;-79
2022/06/20 07:18:34;;;;;;;18.35;5.75;;;;;;;23.24;69.63;100623.03;4954461;28;20085;-79
2022/06/20 07:21:00;;;;;;;6.07;3.78;;;;;;;23.27;67.72;100622.63;4971998;28;20042;-78
2022/06/20 07:23:25;;;;;;;11.55;5.50;;;;;;;23.24;68.20;100625.78;4971618;28;20436;-77
2022/06/20 07:25:51;;;;;;;11.80;6.00;;;;;;;23.19;67.22;100616.50;4971255;28;20063;-79
2022/06/20 07:28:35;;;;;;;14.10;4.95;;;;;;;23.30;67.48;100613.16;4971064;28;20488;-76
2022/06/20 07:31:21;;;;;;;12.80;5.18;;;;;;;23.37;66.60;100619.50;4971899;28;20041;-77
2022/06/20 07:33:54;;;;;;;26.08;5.63;;;;;;;23.37;66.39;100616.75;4928575;28;20053;-78
2022/06/20 07:36:28;;;;;;;15.07;5.28;;;;;;;23.42;66.79;100621.66;4975663;28;20027;-78
2022/06/20 07:39:11;;;;;;;11.15;4.10;;;;;;;23.40;65.97;100619.09;4975289;28;20270;-79
2022/06/20 07:41:42;;;;;;;;;;;;;;;23.40;65.95;100613.63;4976634;28;20043;-76
2022/06/20 07:44:17;;;;;;;11.73;4.38;;;;;;;23.34;64.45;100619.91;4975026;28;19920;-76
2022/06/20 07:46:51;;;;;;;8.68;4.53;;;;;;;23.41;64.97;100618.06;4974860;28;20042;-78
2022/06/20 07:49:27;;;;;;;14.23;3.80;;;;;;;23.46;64.76;100601.78;4958058;28;20541;-79
2022/06/20 07:51:56;;;;;;;9.13;4.13;;;;;;;23.54;64.57;100609.84;4975693;28;20051;-79
2022/06/20 07:54:39;;;;;;;6.35;4.22;;;;;;;23.60;64.04;100603.53;4957056;28;20066;-78
2022/06/20 07:57:17;;;;;;;7.78;4.50;;;;;;;23.57;64.11;100609.44;4974523;28;20038;-76
2022/06/20 07:59:53;;;;;;;18.88;5.95;;;;;;;23.67;64.09;100601.59;4972010;28;20031;-75
2022/06/20 08:02:48;;;;;;;17.25;4.53;;;;;;;23.71;62.91;100608.38;4974580;28;20057;-77
2022/06/20 08:05:41;;;;;;;13.98;5.15;;;;;;;23.84;62.97;100616.63;4945624;29;20081;-78
2022/06/20 08:08:20;;;;;;;10.88;4.38;;;;;;;23.89;62.42;100612.38;4956821;28;20054;-78
2022/06/20 08:10:52;;;;;;;7.20;4.10;;;;;;;23.96;61.56;100613.22;4975528;28;20060;-76
2022/06/20 08:13:32;;;;;;;18.10;4.60;;;;;;;24.01;61.39;100617.03;4975047;28;20034;-76
2022/06/20 08:16:12;;;;;;;13.60;4.93;;;;;;;24.04;60.65;100610.25;4975055;28;20033;-77
2022/06/20 08:18:38;;;;;;;7.45;3.05;;;;;;;24.10;59.22;100610.25;4972247;28;20027;-76
2022/06/20 08:21:19;;;;;;;9.05;3.30;;;;;;;24.13;59.52;100603.50;4974433;28;20216;-77
2022/06/20 08:23:48;;;;;;;9.73;4.80;;;;;;;24.29;59.99;100603.06;4974513;28;20058;-81
2022/06/20 08:26:25;;;;;;;11.77;3.10;;;;;;;24.34;59.11;100600.56;4976478;28;20022;-84
2022/06/20 08:28:57;;;;;;;4.78;3.83;;;;;;;24.45;58.88;100597.13;4973788;28;20058;-79
2022/06/20 08:31:22;;;;;;;;;;;;;;;24.52;55.42;100597.97;4974203;28;20118;-76
2022/06/20 08:34:10;;;;;;;13.57;3.27;;;;;;;24.56;55.29;100596.44;4974894;28;20005;-80
2022/06/20 08:36:48;;;;;;;8.73;2.60;;;;;;;24.72;56.01;100593.22;4975911;28;20110;-81
2022/06/20 08:39:25;;;;;;;7.82;3.17;;;;;;;24.69;57.10;100590.91;4958066;28;20030;-78
2022/06/20 08:42:29;;;;;;;5.03;3.17;;;;;;;24.67;56.00;100597.69;4975387;28;20050;-79
2022/06/20 08:45:26;;;;;;;9.25;3.28;;;;;;;24.73;55.78;100575.66;4858537;29;20133;-82
2022/06/20 08:48:09;;;;;;;14.95;3.60;;;;;;;24.77;55.24;100585.16;4858577;29;20479;-79
2022/06/20 08:51:02;;;;;;;12.10;3.55;;;;;;;24.90;56.44;100582.38;4935961;29;20054;-81
2022/06/20 08:54:05;;;;;;;6.03;3.30;;;;;;;24.86;56.74;100578.38;4961684;28;20042;-81
2022/06/20 08:56:52;;;;;;;22.73;4.70;;;;;;;24.81;56.01;100575.44;4976240;28;20031;-79
2022/06/20 08:59:32;;;;;;;9.52;3.60;;;;;;;24.76;54.77;100577.13;4976254;28;20030;-81
2022/06/20 09:02:28;;;;;;;8.05;3.28;;;;;;;24.90;57.23;100567.78;4976650;28;20089;-81
2022/06/20 09:05:29;;;;;;;4.97;3.20;;;;;;;24.96;58.62;100561.38;4975437;28;20062;-80
2022/06/20 09:08:13;;;;;;;7.93;2.78;;;;;;;25.00;57.65;100570.06;4975099;28;20030;-80
2022/06/20 09:10:41;;;;;;;10.85;3.63;;;;;;;24.90;57.80;100568.63;4974181;28;20026;-80
2022/06/20 09:13:31;;;;;;;10.90;3.47;;;;;;;24.91;58.92;100550.22;4973458;28;20482;-80
2022/06/20 09:16:12;;;;;;;6.80;3.17;;;;;;;24.88;59.15;100554.25;4956009;28;20038;-79
2022/06/20 09:18:52;;;;;;;7.90;3.85;;;;;;;24.89;59.94;100555.91;4973204;28;20053;-80
2022/06/20 09:21:50;;;;;;;12.27;3.33;;;;;;;24.95;60.79;100559.72;4973489;28;20049;-80
2022/06/20 09:24:26;;;;;;;9.07;3.17;;;;;;;25.00;60.16;100559.03;4965492;28;20070;-80
2022/06/20 09:27:13;;;;;;;23.83;3.72;;;;;;;25.01;60.52;100558.00;4974345;28;20031;-80
2022/06/20 09:30:07;;;;;;;5.68;3.58;;;;;;;25.16;61.80;100561.28;4974166;28;20031;-81
2022/06/20 09:32:54;;;;;;;10.95;3.30;;;;;;;25.22;61.63;100560.41;4974112;28;20393;-81
2022/06/20 09:35:37;;;;;;;10.38;3.47;;;;;;;25.23;60.62;100557.41;4974406;28;20058;-81
2022/06/20 09:38:15;;;;;;;10.38;3.33;;;;;;;25.23;60.67;100553.81;4973991;28;20073;-82
2022/06/20 09:40:54;;;;;;;13.55;3.88;;;;;;;25.31;60.61;100548.06;4974127;28;20085;-81
2022/06/20 09:43:47;;;;;;;11.50;3.30;;;;;;;25.49;60.29;100545.41;4973973;28;20049;-81
2022/06/20 09:46:32;;;;;;;9.30;3.03;;;;;;;25.61;59.17;100546.38;4974143;28;20433;-81
2022/06/20 09:49:19;;;;;;;7.38;2.78;;;;;;;25.70;58.31;100546.91;4974193;28;20077;-82
2022/06/20 09:52:08;;;;;;;8.88;4.00;;;;;;;25.75;58.72;100538.81;4974269;28;20034;-82
2022/06/20 09:54:56;;;;;;;13.05;4.70;;;;;;;25.76;58.51;100554.28;4974109;28;20042;-82
2022/06/20 09:57:34;;;;;;;7.78;3.00;;;;;;;25.76;58.14;100546.88;4973717;28;20037;-81
2022/06/20 10:00:18;;;;;;;9.30;3.40;;;;;;;25.85;57.46;100547.41;4973772;28;20508;-82
2022/06/20 10:02:54;;;;;;;7.13;3.10;;;;;;;25.57;57.41;100519.47;4973718;28;20477;-81
2022/06/20 10:05:45;;;;;;;4.80;3.30;;;;;;;25.77;59.20;100548.56;4974312;28;20027;-82
2022/06/20 10:08:19;;;;;;;7.47;4.18;;;;;;;25.79;60.47;100549.19;4974099;28;20026;-81
2022/06/20 10:10:59;;;;;;;11.77;3.78;;;;;;;25.66;59.83;100543.78;4974467;28;20035;-82
2022/06/20 10:13:37;;;;;;;6.18;3.67;;;;;;;25.66;60.76;100546.53;4973550;28;20493;-79
2022/06/20 10:16:20;;;;;;;10.80;3.67;;;;;;;25.67;60.80;100552.88;4973235;28;20411;-83
2022/06/20 10:19:00;;;;;;;13.18;3.50;;;;;;;25.57;60.61;100547.03;4973386;28;20031;-82
2022/06/20 10:21:37;;;;;;;6.63;3.42;;;;;;;25.52;61.25;100539.44;4972861;28;20483;-82
2022/06/20 10:24:40;;;;;;;21.25;4.60;;;;;;;25.69;62.10;100548.84;4955903;28;20046;-81
2022/06/20 10:27:33;;;;;;;12.93;4.13;;;;;;;25.89;61.02;100552.28;4973385;28;20027;-81
2022/06/20 10:30:35;;;;;;;9.88;4.15;;;;;;;25.80;61.25;100553.63;4973388;28;20027;-82
2022/06/20 10:33:16;;;;;;;5.57;3.20;;;;;;;25.83;62.92;100555.94;4944463;28;20093;-81
2022/06/20 10:36:10;;;;;;;4.57;3.17;;;;;;;26.07;62.16;100539.56;4973593;28;20085;-81
2022/06/20 10:38:42;;;;;;;9.35;2.80;;;;;;;25.92;60.79;100546.31;4955674;28;20055;-81
2022/06/20 10:41:13;;;;;;;11.02;3.58;;;;;;;25.89;61.91;100545.91;4973803;28;20058;-81
2022/06/20 10:43:48;;;;;;;16.58;3.53;;;;;;;25.98;62.03;100534.38;4973478;28;20081;-82
2022/06/20 10:46:40;;;;;;;9.25;3.10;;;;;;;25.96;61.67;100536.50;4956377;28;20095;-81
2022/06/20 10:49:33;;;;;;;5.53;3.17;;;;;;;26.08;61.35;100539.38;4973228;28;20045;-82
2022/06/20 10:52:26;;;;;;;9.10;3.25;;;;;;;26.31;61.04;100538.72;4973920;28;20412;-82
2022/06/20 10:54:57;;;;;;;9.05;3.33;;;;;;;26.37;60.33;100533.13;4973356;28;20033;-82
2022/06/20 10:57:28;;;;;;;5.20;3.10;;;;;;;26.53;60.10;100537.19;4972873;28;20092;-82
2022/06/20 11:00:10;;;;;;;14.17;3.40;;;;;;;26.58;59.69;100537.31;4972846;28;20026;-82
2022/06/20 11:03:11;;;;;;;12.20;3.72;;;;;;;26.59;59.80;100533.50;4972495;28;20408;-81
2022/06/20 11:05:39;;;;;;;7.13;3.45;;;;;;;26.39;60.30;100536.47;4972643;28;20115;-83
2022/06/20 11:08:10;;;;;;;7.90;3.00;;;;;;;26.53;60.45;100539.94;4972568;28;20109;-82
2022/06/20 11:10:42;;;;;;;8.10;2.73;;;;;;;26.60;60.27;100534.34;4973238;28;20047;-82
2022/06/20 11:13:43;;;;;;;6.28;3.58;;;;;;;26.62;59.76;100530.28;4973018;28;20082;-82
2022/06/20 11:16:29;;;;;;;7.65;4.28;;;;;;;26.45;60.43;100534.75;4957298;28;20038;-81
2022/06/20 11:19:01;;;;;;;12.95;3.70;;;;;;;26.55;60.36;100518.47;4972984;28;20557;-81
2022/06/20 11:21:39;;;;;;;8.40;3.83;;;;;;;26.60;60.12;100526.06;4955333;28;20027;-81
2022/06/20 11:24:20;;;;;;;14.90;3.45;;;;;;;26.57;59.19;100518.25;4973130;28;20027;-83
2022/06/20 11:27:10;;;;;;;9.43;3.55;;;;;;;26.62;60.09;100535.78;4973102;28;20105;-81
2022/06/20 11:29:54;;;;;;;18.02;3.22;;;;;;;26.76;60.12;100531.78;4960810;28;20030;-88
2022/06/20 11:32:38;;;;;;;10.45;4.55;;;;;;;26.76;60.08;100531.78;4959190;28;20026;-92
2022/06/20 11:35:32;;;;;;;6.82;3.25;;;;;;;26.85;58.37;100513.84;4957849;28;20026;-88
2022/06/20 11:38:01;;;;;;;9.23;3.15;;;;;;;26.92;58.65;100522.88;4955686;28;20031;-89
2022/06/20 11:40:38;;;;;;;6.15;2.80;;;;;;;26.85;58.87;100513.00;4955381;29;20103;-83
2022/06/20 11:43:25;;;;;;;5.85;3.28;;;;;;;27.01;59.44;100510.44;4956603;29;20023;-87
2022/06/20 11:46:44;;;;;;;8.60;3.45;;;;;;;27.18;57.87;100518.91;4964424;28;20080;-89
2022/06/20 11:49:25;;;;;;;8.35;3.03;;;;;;;27.22;57.73;100517.34;4906853;29;20024;-84
2022/06/20 11:52:03;;;;;;;13.40;2.85;;;;;;;27.15;57.74;100513.00;4957115;29;20026;-92
2022/06/20 11:54:28;;;;;;;6.03;3.33;;;;;;;27.20;58.04;100510.38;4956280;29;20035;-87
2022/06/20 11:57:25;;;;;;;8.52;2.83;;;;;;;27.15;57.65;100508.34;4938495;29;20042;-86
2022/06/20 11:59:59;;;;;;;8.15;3.35;;;;;;;26.91;57.89;100515.66;4949075;29;20035;-87
2022/06/20 12:02:34;;;;;;;11.43;3.35;;;;;;;27.04;57.51;100509.97;4965002;28;20493;-86
2022/06/20 12:05:00;;;;;;;16.02;3.53;;;;;;;27.00;57.91;100514.25;4963877;28;20109;-86
2022/06/20 12:07:35;;;;;;;4.43;2.60;;;;;;;27.14;57.32;100512.16;4974249;28;20488;-86
2022/06/20 12:10:14;;;;;;;9.77;3.28;;;;;;;27.14;56.93;100505.78;4974512;28;20485;-85
2022/06/20 12:12:58;;;;;;;8.88;3.30;;;;;;;27.30;55.78;100500.44;4957013;28;20451;-85
2022/06/20 12:15:50;;;;;;;3.75;2.28;;;;;;;27.22;55.97;100502.69;4974970;28;20027;-85
2022/06/20 12:18:39;;;;;;;5.93;2.78;;;;;;;27.34;56.20;100501.63;4975149;28;20082;-84
2022/06/20 12:24:24;;;;;;;11.25;3.97;;;;;;;27.68;55.66;100499.19;4965680;28;20054;-85
2022/06/20 12:26:55;;;;;;;6.80;2.92;;;;;;;27.79;55.73;100485.38;4968471;28;20027;-86
2022/06/20 12:29:23;;;;;;;4.28;3.17;;;;;;;27.91;55.48;100491.75;4960215;28;20062;-85
2022/06/20 12:31:53;;;;;;;7.20;2.70;;;;;;;28.09;54.55;100486.09;4976548;28;20085;-84
2022/06/20 12:34:36;;;;;;;10.68;2.88;;;;;;;28.20;54.40;100489.91;4976750;28;20476;-84
2022/06/20 12:37:12;;;;;;;7.95;2.80;;;;;;;28.26;54.31;100482.56;4991654;28;20031;-85
2022/06/20 12:40:12;;;;;;;8.15;3.22;;;;;;;28.33;53.84;100488.81;4996358;28;20479;-84
2022/06/20 12:43:08;;;;;;;14.95;4.13;;;;;;;28.43;53.29;100480.75;4958312;28;20555;-84
2022/06/20 12:46:06;;;;;;;5.57;2.47;;;;;;;28.36;52.52;100449.59;4986607;28;20050;-85
2022/06/20 12:48:59;;;;;;;5.25;2.70;;;;;;;28.54;52.14;100471.56;4996976;28;20061;-86
2022/06/20 12:51:43;;;;;;;;;;;;;;;28.49;51.33;100471.47;4997014;28;20034;-83
2022/06/20 12:54:18;;;;;;;5.93;2.85;;;;;;;28.44;51.93;100469.41;4978177;28;20294;-81
2022/06/20 12:57:10;;;;;;;5.40;2.78;;;;;;;28.40;49.49;100459.09;4976621;28;20041;-82
2022/06/20 12:59:38;;;;;;;6.85;2.38;;;;;;;28.54;51.83;100464.09;4976423;28;20036;-80
2022/06/20 13:02:38;;;;;;;5.60;2.50;;;;;;;28.56;50.96;100463.88;4976832;28;20030;-82
2022/06/20 13:05:34;;;;;;;14.93;2.65;;;;;;;28.59;50.78;100466.13;4976140;28;20035;-82
2022/06/20 13:08:19;;;;;;;5.57;3.05;;;;;;;28.65;50.91;100459.66;4977293;28;20473;-82
2022/06/20 13:10:59;;;;;;;12.32;3.65;;;;;;;28.81;49.31;100453.28;4982048;28;20039;-82
2022/06/20 13:14:13;;;;;;;8.15;2.88;;;;;;;28.70;48.95;100445.91;4979724;28;20034;-83
2022/06/20 13:17:16;;;;;;;7.80;2.50;;;;;;;28.74;50.47;100447.09;4968019;28;20522;-82
2022/06/20 13:20:17;;;;;;;6.22;2.53;;;;;;;28.80;49.56;100434.19;4967992;28;20030;-83
2022/06/20 13:23:14;;;;;;;14.38;2.72;;;;;;;28.80;49.79;100428.63;4978709;28;20034;-85
2022/06/20 13:25:55;;;;;;;7.25;2.70;;;;;;;29.04;49.53;100425.50;4975162;28;20030;-83
2022/06/20 13:28:52;;;;;;;5.13;2.53;;;;;;;29.09;48.99;100422.78;4975737;28;20030;-83
2022/06/20 13:31:24;;;;;;;7.32;3.05;;;;;;;29.08;49.74;100418.34;4976109;28;20066;-82
2022/06/20 13:34:03;;;;;;;8.20;3.10;;;;;;;29.14;49.94;100410.97;4976083;28;20150;-84
2022/06/20 13:36:43;;;;;;;10.30;2.60;;;;;;;29.23;49.78;100405.84;4975868;28;20030;-83
2022/06/20 13:39:37;;;;;;;8.38;2.80;;;;;;;29.23;48.97;100406.69;4976130;28;20031;-83
2022/06/20 13:42:16;;;;;;;12.20;3.05;;;;;;;29.35;48.80;100403.84;4975854;28;20062;-81
2022/06/20 13:44:56;;;;;;;6.90;2.40;;;;;;;29.35;48.71;100401.09;4976298;28;20038;-84
2022/06/20 13:47:28;;;;;;;2.83;1.92;;;;;;;29.45;48.70;100387.38;4977652;28;20035;-89
2022/06/20 13:50:21;;;;;;;23.67;3.35;;;;;;;29.44;48.77;100396.78;4977669;28;20062;-88
2022/06/20 13:53:08;;;;;;;6.75;2.50;;;;;;;29.38;49.23;100392.28;4944052;28;20045;-90
2022/06/20 13:55:55;;;;;;;5.13;2.22;;;;;;;29.41;49.20;100394.53;4976751;28;20066;-89
2022/06/20 13:58:27;;;;;;;8.90;2.72;;;;;;;29.31;49.99;100386.91;4983077;28;20035;-87
2022/06/20 14:01:00;;;;;;;7.03;3.05;;;;;;;29.17;50.17;100375.28;4983336;28;20039;-92
2022/06/20 14:03:33;;;;;;;12.48;2.78;;;;;;;29.16;49.84;100384.69;4983280;28;20473;-83
2022/06/20 14:06:22;;;;;;;19.35;3.13;;;;;;;29.15;49.41;100382.16;4939444;29;20035;-86
2022/06/20 14:08:54;;;;;;;8.07;2.20;;;;;;;29.14;48.55;100367.47;4961337;28;20128;-87
2022/06/20 14:11:40;;;;;;;7.27;3.03;;;;;;;29.14;48.90;100364.69;4975534;28;20031;-86
2022/06/20 14:14:16;;;;;;;9.82;2.42;;;;;;;29.09;49.09;100367.41;4957811;28;20526;-84
2022/06/20 14:16:47;;;;;;;11.82;3.00;;;;;;;29.02;49.05;100366.72;4975827;28;20027;-83
2022/06/20 14:19:43;;;;;;;19.92;3.05;;;;;;;29.11;49.10;100359.66;4976271;28;20097;-87
2022/06/20 14:22:27;;;;;;;14.82;3.58;;;;;;;28.90;50.36;100356.81;4975070;28;20035;-90
2022/06/20 14:24:55;;;;;;;9.13;2.55;;;;;;;28.73;50.81;100354.03;4975671;28;20515;-92
2022/06/20 14:27:29;;;;;;;3.92;2.45;;;;;;;28.48;51.72;100359.94;4957139;28;20413;-83
2022/06/20 14:30:03;;;;;;;10.50;3.50;;;;;;;28.27;51.46;100355.09;4975059;28;20030;-81
2022/06/20 14:32:56;;;;;;;28.13;4.10;;;;;;;27.99;52.66;100344.81;4977746;28;20030;-86
2022/06/20 14:35:33;;;;;;;10.50;3.63;;;;;;;27.72;53.70;100349.22;4980747;28;20030;-87
2022/06/20 14:38:17;;;;;;;12.05;3.50;;;;;;;27.37;55.28;100345.63;4975200;28;20551;-84
2022/06/20 14:40:43;;;;;;;10.70;4.38;;;;;;;27.16;55.49;100347.06;4974689;28;20182;-85
2022/06/20 14:43:23;;;;;;;16.90;3.75;;;;;;;26.91;56.63;100347.28;4974596;28;20066;-84
2022/06/20 14:46:23;;;;;;;12.88;3.65;;;;;;;26.78;57.75;100335.63;4975415;28;20584;-85
2022/06/20 14:49:04;;;;;;;9.95;3.25;;;;;;;26.58;58.37;100344.19;4973653;28;20047;-84
2022/06/20 14:51:44;;;;;;;10.82;2.85;;;;;;;26.46;59.29;100343.31;4976189;28;20042;-87
2022/06/20 14:54:13;;;;;;;11.05;4.47;;;;;;;26.39;59.98;100346.19;4975729;28;20173;-85
2022/06/20 14:56:50;;;;;;;13.05;3.30;;;;;;;26.18;61.04;100345.84;4973854;28;20166;-86
2022/06/20 14:59:31;;;;;;;15.18;3.70;;;;;;;26.21;60.32;100346.22;4955848;29;20019;-84
2022/06/20 15:02:10;;;;;;;13.52;4.15;;;;;;;26.11;60.31;100356.13;4955947;29;20023;-83
2022/06/20 15:04:54;;;;;;;8.75;3.13;;;;;;;26.02;60.80;100346.47;4955500;29;20034;-85
2022/06/20 15:07:29;;;;;;;11.68;3.90;;;;;;;25.81;61.32;100356.03;4938293;29;20031;-83
2022/06/20 15:10:01;;;;;;;10.82;3.80;;;;;;;25.52;62.73;100346.66;4956581;29;20396;-87
2022/06/20 15:12:43;;;;;;;17.90;3.15;;;;;;;25.55;63.18;100346.19;4956504;29;20031;-86
2022/06/20 15:15:30;;;;;;;10.95;4.40;;;;;;;25.55;62.99;100345.34;4955822;29;20105;-85
2022/06/20 15:18:18;;;;;;;7.55;3.65;;;;;;;25.42;63.48;100349.06;4938622;29;20114;-84
2022/06/20 15:21:11;;;;;;;12.45;3.80;;;;;;;25.42;63.45;100354.56;4956147;29;20027;-87
2022/06/20 15:23:48;;;;;;;18.52;4.75;;;;;;;25.35;63.58;100345.56;4955951;29;20027;-86
2022/06/20 15:26:22;;;;;;;13.75;4.90;;;;;;;25.38;63.85;100348.66;4955981;29;20453;-94
2022/06/20 15:28:58;;;;;;;8.73;4.05;;;;;;;25.36;62.99;100331.53;4939017;29;20489;-89
2022/06/20 15:31:28;;;;;;;9.20;3.47;;;;;;;25.34;63.75;100335.59;4938363;29;20122;-85
2022/06/20 15:33:56;;;;;;;9.15;4.18;;;;;;;25.32;63.73;100329.47;4938211;29;20027;-87
2022/06/20 15:36:40;;;;;;;6.07;3.67;;;;;;;25.27;64.11;100346.66;4938572;29;20054;-84
2022/06/20 15:39:28;;;;;;;8.00;3.42;;;;;;;25.16;64.19;100341.06;4955434;29;20030;-84
2022/06/20 15:44:50;;;;;;;8.82;3.22;;;;;;;25.18;64.14;100338.94;4974608;28;20444;-91
2022/06/20 15:47:43;;;;;;;7.38;3.15;;;;;;;25.09;64.13;100329.28;4978181;28;20845;-84
2022/06/20 15:50:11;;;;;;;9.93;4.05;;;;;;;25.19;63.84;100340.63;4958725;29;20485;-84
2022/06/20 15:53:15;;;;;;;6.30;3.20;;;;;;;25.18;63.55;100327.91;4938587;28;20031;-85
2022/06/20 15:55:47;;;;;;;13.93;3.83;;;;;;;25.11;63.91;100333.47;4939709;29;20051;-81
2022/06/20 15:58:24;;;;;;;;;;;;;;;25.12;63.52;100331.56;4961313;29;20038;-84
2022/06/20 16:01:15;;;;;;;8.07;2.83;;;;;;;25.04;64.05;100329.97;4977322;28;19910;-83
2022/06/20 16:04:20;;;;;;;5.50;3.55;;;;;;;24.98;63.79;100332.78;4979556;28;20038;-84
2022/06/20 16:06:55;;;;;;;35.20;4.78;;;;;;;24.99;62.84;100334.44;4981649;28;20043;-84
2022/06/20 16:09:31;;;;;;;10.50;3.53;;;;;;;24.98;63.32;100332.78;4979468;28;20038;-84
2022/06/20 16:12:18;;;;;;;7.70;3.45;;;;;;;24.98;63.49;100333.63;4978705;28;20058;-79
2022/06/20 16:14:49;;;;;;;9.88;3.05;;;;;;;24.94;60.32;100335.13;4979342;28;20109;-81
2022/06/20 16:17:25;;;;;;;7.65;2.75;;;;;;;24.94;59.98;100326.88;4978204;28;20034;-87
2022/06/20 16:19:56;;;;;;;10.98;3.67;;;;;;;24.92;59.42;100328.19;4960365;28;20037;-85
2022/06/20 16:22:23;;;;;;;16.35;3.70;;;;;;;24.80;59.61;100314.25;4978487;28;20055;-82
2022/06/20 16:25:06;;;;;;;13.60;4.32;;;;;;;24.85;59.42;100323.59;4961624;28;20042;-84
2022/06/20 16:27:35;;;;;;;8.93;3.50;;;;;;;24.92;60.92;100327.09;4984391;28;20082;-90
2022/06/20 16:30:23;;;;;;;10.57;3.47;;;;;;;24.85;61.58;100317.22;4983402;28;20119;-85
2022/06/20 16:33:12;;;;;;;17.50;4.50;;;;;;;24.74;62.42;100321.50;4965361;28;20034;-82
2022/06/20 16:35:38;;;;;;;13.52;4.78;;;;;;;24.69;63.24;100306.75;4965366;28;20045;-85
2022/06/20 16:38:07;;;;;;;12.45;3.83;;;;;;;24.79;63.60;100318.09;4978794;28;20031;-87
2022/06/20 16:41:00;;;;;;;11.63;3.70;;;;;;;24.77;63.96;100321.06;4978038;28;20109;-81
2022/06/20 16:43:43;;;;;;;12.60;3.45;;;;;;;24.77;64.29;100318.31;4929092;28;20047;-81
2022/06/20 16:46:32;;;;;;;7.57;3.53;;;;;;;24.74;63.94;100316.00;4976686;28;20113;-82
2022/06/20 16:49:03;;;;;;;12.98;4.22;;;;;;;24.72;64.19;100318.16;4977394;28;20042;-83
2022/06/20 16:51:35;;;;;;;10.70;3.75;;;;;;;24.77;63.84;100315.56;4959763;28;20140;-85
2022/06/20 16:54:17;;;;;;;18.70;3.57;;;;;;;24.71;64.49;100319.19;4960303;28;20054;-85
2022/06/20 16:57:12;;;;;;;13.02;3.65;;;;;;;24.53;65.03;100308.13;4979441;28;20041;-84
2022/06/20 16:59:57;;;;;;;9.93;3.80;;;;;;;24.50;64.27;100322.34;4996002;28;20046;-81
2022/06/20 17:02:35;;;;;;;10.70;4.00;;;;;;;24.51;63.91;100321.28;4995772;28;20057;-82
2022/06/20 17:05:10;;;;;;;10.25;3.33;;;;;;;24.46;63.67;100317.53;4994295;28;20088;-80
2022/06/20 17:07:52;;;;;;;7.95;3.58;;;;;;;24.41;62.69;100320.06;4995185;28;20396;-79
2022/06/20 17:10:42;;;;;;;12.68;4.03;;;;;;;24.38;63.41;100316.72;4994765;28;20109;-80
2022/06/20 17:13:13;;;;;;;23.38;5.57;;;;;;;24.41;62.90;100315.41;4994502;28;20085;-80
2022/06/20 17:15:46;;;;;;;18.85;4.93;;;;;;;24.45;62.28;100313.91;4994705;28;20109;-78